sensor_id;sensor_type;location;lat;lon;timestamp;P1;durP1;ratioP1;P2;durP2;ratioP2
63282;SDS011;49407;51.388;0.048;2022-12-29T00:01:42;37.42;;;30.15;;
63282;SDS011;49407;51.388;0.048;2022-12-29T00:04:09;42.17;;;28.95;;
63282;SDS011;49407;51.388;0.048;2022-12-29T00:06:41;37.10;;;23.60;;
63282;SDS011;49407;51.388;0.048;2022-12-29T00:11:58;34.80;;;30.95;;
63282;SDS011;49407;51.388;0.048;2022-12-29T00:14:25;34.40;;;26.67;;
63282;SDS011;49407;51.388;0.048;2022-12-29T00:17:11;37.65;;;25.40;;
63282;SDS011;49407;51.388;0.048;2022-12-29T00:23:02;27.23;;;22.05;;
63282;SDS011;49407;51.388;0.048;2022-12-29T00:25:47;34.88;;;25.85;;
63282;SDS011;49407;51.388;0.048;2022-12-29T00:28:34;34.92;;;24.50;;
63282;SDS011;49407;51.388;0.048;2022-12-29T00:31:19;30.45;;;26.77;;
63282;SDS011;49407;51.388;0.048;2022-12-29T00:34:07;33.97;;;23.30;;
63282;SDS011;49407;51.388;0.048;2022-12-29T00:36:54;36.97;;;24.98;;
63282;SDS011;49407;51.388;0.048;2022-12-29T00:39:22;11.63;;;8.27;;
63282;SDS011;49407;51.388;0.048;2022-12-29T00:42:08;31.83;;;28.73;;
63282;SDS011;49407;51.388;0.048;2022-12-29T00:45:04;37.38;;;31.08;;
63282;SDS011;49407;51.388;0.048;2022-12-29T00:47:32;31.33;;;24.60;;
63282;SDS011;49407;51.388;0.048;2022-12-29T00:49:59;35.40;;;24.20;;
63282;SDS011;49407;51.388;0.048;2022-12-29T00:52:26;39.92;;;30.55;;
63282;SDS011;49407;51.388;0.048;2022-12-29T00:54:53;34.53;;;24.60;;
63282;SDS011;49407;51.388;0.048;2022-12-29T00:57:20;31.10;;;26.75;;
63282;SDS011;49407;51.388;0.048;2022-12-29T00:59:48;36.80;;;21.75;;
63282;SDS011;49407;51.388;0.048;2022-12-29T01:02:15;31.02;;;21.35;;
63282;SDS011;49407;51.388;0.048;2022-12-29T01:04:42;25.30;;;18.60;;
63282;SDS011;49407;51.388;0.048;2022-12-29T01:07:09;33.22;;;19.63;;
63282;SDS011;49407;51.388;0.048;2022-12-29T01:09:37;29.55;;;17.98;;
63282;SDS011;49407;51.388;0.048;2022-12-29T01:12:22;27.17;;;15.88;;
63282;SDS011;49407;51.388;0.048;2022-12-29T01:15:09;30.50;;;15.48;;
63282;SDS011;49407;51.388;0.048;2022-12-29T01:17:38;21.52;;;14.40;;
63282;SDS011;49407;51.388;0.048;2022-12-29T01:20:05;31.38;;;16.52;;
63282;SDS011;49407;51.388;0.048;2022-12-29T01:22:33;34.17;;;14.70;;
63282;SDS011;49407;51.388;0.048;2022-12-29T01:25:00;32.67;;;15.30;;
63282;SDS011;49407;51.388;0.048;2022-12-29T01:27:27;28.27;;;13.75;;
63282;SDS011;49407;51.388;0.048;2022-12-29T01:29:54;32.33;;;15.50;;
63282;SDS011;49407;51.388;0.048;2022-12-29T01:32:21;29.10;;;14.05;;
63282;SDS011;49407;51.388;0.048;2022-12-29T01:34:48;14.25;;;8.85;;
63282;SDS011;49407;51.388;0.048;2022-12-29T01:37:15;32.83;;;16.58;;
63282;SDS011;49407;51.388;0.048;2022-12-29T01:39:43;38.10;;;17.27;;
63282;SDS011;49407;51.388;0.048;2022-12-29T01:42:17;40.58;;;19.30;;
63282;SDS011;49407;51.388;0.048;2022-12-29T01:44:53;33.70;;;19.17;;
63282;SDS011;49407;51.388;0.048;2022-12-29T01:49:57;28.25;;;19.95;;
63282;SDS011;49407;51.388;0.048;2022-12-29T01:52:30;44.50;;;20.33;;
63282;SDS011;49407;51.388;0.048;2022-12-29T01:55:01;41.47;;;22.33;;
63282;SDS011;49407;51.388;0.048;2022-12-29T01:57:31;33.55;;;17.83;;
63282;SDS011;49407;51.388;0.048;2022-12-29T02:00:10;26.38;;;18.48;;
63282;SDS011;49407;51.388;0.048;2022-12-29T02:02:44;29.40;;;15.68;;
63282;SDS011;49407;51.388;0.048;2022-12-29T02:05:27;25.42;;;14.10;;
63282;SDS011;49407;51.388;0.048;2022-12-29T02:08:03;29.80;;;17.58;;
63282;SDS011;49407;51.388;0.048;2022-12-29T02:10:33;26.77;;;15.88;;
63282;SDS011;49407;51.388;0.048;2022-12-29T02:13:01;31.83;;;15.70;;
63282;SDS011;49407;51.388;0.048;2022-12-29T02:18:32;28.15;;;15.77;;
63282;SDS011;49407;51.388;0.048;2022-12-29T02:21:31;27.92;;;15.48;;
63282;SDS011;49407;51.388;0.048;2022-12-29T02:24:21;32.53;;;17.70;;
63282;SDS011;49407;51.388;0.048;2022-12-29T02:37:41;31.90;;;15.70;;
63282;SDS011;49407;51.388;0.048;2022-12-29T02:40:22;35.42;;;16.67;;
63282;SDS011;49407;51.388;0.048;2022-12-29T02:46:00;32.05;;;16.05;;
63282;SDS011;49407;51.388;0.048;2022-12-29T02:51:01;27.23;;;14.45;;
63282;SDS011;49407;51.388;0.048;2022-12-29T02:53:52;34.10;;;16.60;;
63282;SDS011;49407;51.388;0.048;2022-12-29T02:56:39;32.88;;;14.13;;
63282;SDS011;49407;51.388;0.048;2022-12-29T02:59:06;31.77;;;15.73;;
63282;SDS011;49407;51.388;0.048;2022-12-29T03:01:43;35.25;;;15.15;;
63282;SDS011;49407;51.388;0.048;2022-12-29T03:12:54;26.05;;;13.98;;
63282;SDS011;49407;51.388;0.048;2022-12-29T03:18:41;34.95;;;14.05;;
63282;SDS011;49407;51.388;0.048;2022-12-29T03:24:27;42.95;;;13.60;;
63282;SDS011;49407;51.388;0.048;2022-12-29T03:26:57;29.10;;;13.55;;
63282;SDS011;49407;51.388;0.048;2022-12-29T03:29:57;40.63;;;13.40;;
63282;SDS011;49407;51.388;0.048;2022-12-29T03:32:27;33.72;;;13.55;;
63282;SDS011;49407;51.388;0.048;2022-12-29T03:34:58;33.83;;;14.57;;
63282;SDS011;49407;51.388;0.048;2022-12-29T03:37:40;26.83;;;11.93;;
63282;SDS011;49407;51.388;0.048;2022-12-29T03:40:12;40.30;;;13.63;;
63282;SDS011;49407;51.388;0.048;2022-12-29T03:42:39;31.85;;;12.75;;
63282;SDS011;49407;51.388;0.048;2022-12-29T03:45:08;34.08;;;13.90;;
63282;SDS011;49407;51.388;0.048;2022-12-29T03:47:37;31.50;;;12.25;;
63282;SDS011;49407;51.388;0.048;2022-12-29T03:50:05;43.58;;;13.80;;
63282;SDS011;49407;51.388;0.048;2022-12-29T03:52:38;38.92;;;13.38;;
63282;SDS011;49407;51.388;0.048;2022-12-29T03:55:05;32.88;;;13.98;;
63282;SDS011;49407;51.388;0.048;2022-12-29T03:57:32;40.65;;;16.08;;
63282;SDS011;49407;51.388;0.048;2022-12-29T04:00:04;37.95;;;13.13;;
63282;SDS011;49407;51.388;0.048;2022-12-29T04:02:40;30.60;;;12.63;;
63282;SDS011;49407;51.388;0.048;2022-12-29T04:05:11;31.58;;;12.52;;
63282;SDS011;49407;51.388;0.048;2022-12-29T04:07:40;32.45;;;13.13;;
63282;SDS011;49407;51.388;0.048;2022-12-29T04:10:08;28.48;;;12.63;;
63282;SDS011;49407;51.388;0.048;2022-12-29T04:12:35;38.97;;;13.80;;
63282;SDS011;49407;51.388;0.048;2022-12-29T04:15:02;32.83;;;13.55;;
63282;SDS011;49407;51.388;0.048;2022-12-29T04:17:31;36.50;;;13.38;;
63282;SDS011;49407;51.388;0.048;2022-12-29T04:19:58;29.77;;;15.07;;
63282;SDS011;49407;51.388;0.048;2022-12-29T04:22:44;37.28;;;17.27;;
63282;SDS011;49407;51.388;0.048;2022-12-29T04:25:13;37.78;;;18.20;;
63282;SDS011;49407;51.388;0.048;2022-12-29T04:27:43;44.03;;;18.67;;
63282;SDS011;49407;51.388;0.048;2022-12-29T04:30:37;39.95;;;20.77;;
63282;SDS011;49407;51.388;0.048;2022-12-29T04:33:12;38.20;;;24.23;;
63282;SDS011;49407;51.388;0.048;2022-12-29T04:35:41;37.00;;;23.55;;
63282;SDS011;49407;51.388;0.048;2022-12-29T04:38:11;47.47;;;25.85;;
63282;SDS011;49407;51.388;0.048;2022-12-29T04:40:40;42.70;;;22.83;;
63282;SDS011;49407;51.388;0.048;2022-12-29T04:43:09;42.72;;;25.02;;
63282;SDS011;49407;51.388;0.048;2022-12-29T04:45:55;46.33;;;24.38;;
63282;SDS011;49407;51.388;0.048;2022-12-29T04:48:37;39.10;;;24.00;;
63282;SDS011;49407;51.388;0.048;2022-12-29T04:51:30;42.70;;;28.02;;
63282;SDS011;49407;51.388;0.048;2022-12-29T04:53:57;45.60;;;27.83;;
63282;SDS011;49407;51.388;0.048;2022-12-29T04:56:26;53.45;;;26.48;;
63282;SDS011;49407;51.388;0.048;2022-12-29T04:58:53;46.67;;;37.67;;
63282;SDS011;49407;51.388;0.048;2022-12-29T05:01:20;38.17;;;25.42;;
63282;SDS011;49407;51.388;0.048;2022-12-29T05:03:49;43.15;;;26.58;;
63282;SDS011;49407;51.388;0.048;2022-12-29T05:06:18;41.63;;;26.38;;
63282;SDS011;49407;51.388;0.048;2022-12-29T05:08:46;58.15;;;29.35;;
63282;SDS011;49407;51.388;0.048;2022-12-29T05:11:13;44.67;;;29.73;;
63282;SDS011;49407;51.388;0.048;2022-12-29T05:13:44;44.70;;;28.63;;
63282;SDS011;49407;51.388;0.048;2022-12-29T05:16:12;48.28;;;31.88;;
63282;SDS011;49407;51.388;0.048;2022-12-29T05:18:42;43.10;;;29.95;;
63282;SDS011;49407;51.388;0.048;2022-12-29T05:21:09;45.08;;;31.60;;
63282;SDS011;49407;51.388;0.048;2022-12-29T05:23:39;45.20;;;31.75;;
63282;SDS011;49407;51.388;0.048;2022-12-29T05:26:05;51.47;;;37.55;;
63282;SDS011;49407;51.388;0.048;2022-12-29T05:29:06;54.45;;;32.20;;
63282;SDS011;49407;51.388;0.048;2022-12-29T05:31:33;44.42;;;33.08;;
63282;SDS011;49407;51.388;0.048;2022-12-29T05:34:03;42.90;;;32.33;;
63282;SDS011;49407;51.388;0.048;2022-12-29T05:36:30;45.38;;;35.42;;
63282;SDS011;49407;51.388;0.048;2022-12-29T05:39:05;46.47;;;34.25;;
63282;SDS011;49407;51.388;0.048;2022-12-29T05:41:34;40.25;;;30.98;;
63282;SDS011;49407;51.388;0.048;2022-12-29T05:44:39;41.25;;;31.58;;
63282;SDS011;49407;51.388;0.048;2022-12-29T05:47:17;40.72;;;28.75;;
63282;SDS011;49407;51.388;0.048;2022-12-29T05:49:51;40.00;;;34.55;;
63282;SDS011;49407;51.388;0.048;2022-12-29T05:52:44;17.42;;;8.15;;
63282;SDS011;49407;51.388;0.048;2022-12-29T05:55:11;38.10;;;26.20;;
63282;SDS011;49407;51.388;0.048;2022-12-29T05:57:39;33.83;;;28.10;;
63282;SDS011;49407;51.388;0.048;2022-12-29T06:00:09;33.67;;;25.92;;
63282;SDS011;49407;51.388;0.048;2022-12-29T06:02:40;28.25;;;23.17;;
63282;SDS011;49407;51.388;0.048;2022-12-29T06:05:07;29.17;;;22.70;;
63282;SDS011;49407;51.388;0.048;2022-12-29T06:10:24;32.47;;;26.65;;
63282;SDS011;49407;51.388;0.048;2022-12-29T06:12:58;31.02;;;27.42;;
63282;SDS011;49407;51.388;0.048;2022-12-29T06:15:25;25.67;;;22.60;;
63282;SDS011;49407;51.388;0.048;2022-12-29T06:17:53;27.77;;;22.33;;
63282;SDS011;49407;51.388;0.048;2022-12-29T06:20:21;21.23;;;19.00;;
63282;SDS011;49407;51.388;0.048;2022-12-29T06:22:48;22.00;;;18.00;;
63282;SDS011;49407;51.388;0.048;2022-12-29T06:25:16;18.25;;;15.98;;
63282;SDS011;49407;51.388;0.048;2022-12-29T06:27:44;20.73;;;18.10;;
63282;SDS011;49407;51.388;0.048;2022-12-29T06:30:11;24.05;;;18.30;;
63282;SDS011;49407;51.388;0.048;2022-12-29T06:32:39;17.80;;;15.30;;
63282;SDS011;49407;51.388;0.048;2022-12-29T06:35:09;19.35;;;17.02;;
63282;SDS011;49407;51.388;0.048;2022-12-29T06:37:42;20.98;;;18.48;;
63282;SDS011;49407;51.388;0.048;2022-12-29T06:40:09;17.05;;;15.32;;
63282;SDS011;49407;51.388;0.048;2022-12-29T06:42:53;16.08;;;14.15;;
63282;SDS011;49407;51.388;0.048;2022-12-29T06:45:32;18.63;;;16.75;;
63282;SDS011;49407;51.388;0.048;2022-12-29T06:48:00;15.27;;;13.88;;
63282;SDS011;49407;51.388;0.048;2022-12-29T06:50:27;17.23;;;12.27;;
63282;SDS011;49407;51.388;0.048;2022-12-29T06:52:54;14.82;;;13.45;;
63282;SDS011;49407;51.388;0.048;2022-12-29T06:55:21;16.80;;;15.43;;
63282;SDS011;49407;51.388;0.048;2022-12-29T06:57:54;13.35;;;12.20;;
63282;SDS011;49407;51.388;0.048;2022-12-29T07:00:24;15.70;;;14.45;;
63282;SDS011;49407;51.388;0.048;2022-12-29T07:02:51;13.70;;;12.70;;
63282;SDS011;49407;51.388;0.048;2022-12-29T07:05:21;13.43;;;12.30;;
63282;SDS011;49407;51.388;0.048;2022-12-29T07:07:49;16.23;;;14.65;;
63282;SDS011;49407;51.388;0.048;2022-12-29T07:10:16;15.30;;;13.93;;
63282;SDS011;49407;51.388;0.048;2022-12-29T07:12:43;11.75;;;10.63;;
63282;SDS011;49407;51.388;0.048;2022-12-29T07:15:10;14.63;;;13.00;;
63282;SDS011;49407;51.388;0.048;2022-12-29T07:17:37;14.75;;;13.65;;
63282;SDS011;49407;51.388;0.048;2022-12-29T07:20:04;15.30;;;14.07;;
63282;SDS011;49407;51.388;0.048;2022-12-29T07:22:32;12.23;;;11.43;;
63282;SDS011;49407;51.388;0.048;2022-12-29T07:24:59;16.15;;;14.85;;
63282;SDS011;49407;51.388;0.048;2022-12-29T07:27:26;12.88;;;11.80;;
63282;SDS011;49407;51.388;0.048;2022-12-29T07:29:53;14.95;;;13.55;;
63282;SDS011;49407;51.388;0.048;2022-12-29T07:32:20;15.68;;;14.40;;
63282;SDS011;49407;51.388;0.048;2022-12-29T07:34:47;15.23;;;13.98;;
63282;SDS011;49407;51.388;0.048;2022-12-29T07:37:14;10.50;;;9.45;;
63282;SDS011;49407;51.388;0.048;2022-12-29T07:39:42;14.00;;;12.98;;
63282;SDS011;49407;51.388;0.048;2022-12-29T07:42:09;13.70;;;12.55;;
63282;SDS011;49407;51.388;0.048;2022-12-29T07:44:41;14.13;;;12.82;;
63282;SDS011;49407;51.388;0.048;2022-12-29T07:47:15;13.13;;;11.90;;
63282;SDS011;49407;51.388;0.048;2022-12-29T07:49:43;14.27;;;12.90;;
63282;SDS011;49407;51.388;0.048;2022-12-29T07:52:10;12.18;;;10.98;;
63282;SDS011;49407;51.388;0.048;2022-12-29T07:54:36;10.13;;;5.32;;
63282;SDS011;49407;51.388;0.048;2022-12-29T07:57:04;13.23;;;12.00;;
63282;SDS011;49407;51.388;0.048;2022-12-29T07:59:33;5.80;;;5.40;;
63282;SDS011;49407;51.388;0.048;2022-12-29T08:02:00;12.27;;;11.30;;
63282;SDS011;49407;51.388;0.048;2022-12-29T08:04:27;14.00;;;13.00;;
63282;SDS011;49407;51.388;0.048;2022-12-29T08:06:54;14.60;;;13.55;;
63282;SDS011;49407;51.388;0.048;2022-12-29T08:09:22;15.70;;;14.15;;
63282;SDS011;49407;51.388;0.048;2022-12-29T08:11:49;6.88;;;6.20;;
63282;SDS011;49407;51.388;0.048;2022-12-29T08:14:17;16.63;;;15.40;;
63282;SDS011;49407;51.388;0.048;2022-12-29T08:16:44;14.18;;;13.05;;
63282;SDS011;49407;51.388;0.048;2022-12-29T08:19:12;15.10;;;13.32;;
63282;SDS011;49407;51.388;0.048;2022-12-29T08:21:40;14.75;;;13.55;;
63282;SDS011;49407;51.388;0.048;2022-12-29T08:24:07;14.95;;;13.13;;
63282;SDS011;49407;51.388;0.048;2022-12-29T08:26:34;15.27;;;14.00;;
63282;SDS011;49407;51.388;0.048;2022-12-29T08:29:03;13.73;;;12.73;;
63282;SDS011;49407;51.388;0.048;2022-12-29T08:31:30;15.40;;;13.68;;
63282;SDS011;49407;51.388;0.048;2022-12-29T08:33:57;14.10;;;12.60;;
63282;SDS011;49407;51.388;0.048;2022-12-29T08:36:24;13.90;;;12.85;;
63282;SDS011;49407;51.388;0.048;2022-12-29T08:38:51;14.90;;;13.60;;
63282;SDS011;49407;51.388;0.048;2022-12-29T08:41:18;15.13;;;13.82;;
63282;SDS011;49407;51.388;0.048;2022-12-29T08:43:46;16.42;;;15.30;;
63282;SDS011;49407;51.388;0.048;2022-12-29T08:46:13;5.28;;;5.07;;
63282;SDS011;49407;51.388;0.048;2022-12-29T08:48:42;19.25;;;14.52;;
63282;SDS011;49407;51.388;0.048;2022-12-29T08:51:09;15.20;;;14.23;;
63282;SDS011;49407;51.388;0.048;2022-12-29T08:53:36;12.75;;;11.65;;
63282;SDS011;49407;51.388;0.048;2022-12-29T08:56:03;15.45;;;14.13;;
63282;SDS011;49407;51.388;0.048;2022-12-29T08:58:42;14.18;;;11.88;;
63282;SDS011;49407;51.388;0.048;2022-12-29T09:01:09;13.85;;;12.88;;
63282;SDS011;49407;51.388;0.048;2022-12-29T09:03:38;14.50;;;13.30;;
63282;SDS011;49407;51.388;0.048;2022-12-29T09:06:24;15.55;;;14.05;;
63282;SDS011;49407;51.388;0.048;2022-12-29T09:11:24;17.08;;;15.73;;
63282;SDS011;49407;51.388;0.048;2022-12-29T09:13:52;16.25;;;12.93;;
63282;SDS011;49407;51.388;0.048;2022-12-29T09:16:20;14.23;;;12.93;;
63282;SDS011;49407;51.388;0.048;2022-12-29T09:18:49;15.65;;;12.75;;
63282;SDS011;49407;51.388;0.048;2022-12-29T09:21:16;16.98;;;15.35;;
63282;SDS011;49407;51.388;0.048;2022-12-29T09:23:43;14.10;;;12.98;;
63282;SDS011;49407;51.388;0.048;2022-12-29T09:26:10;14.10;;;12.50;;
63282;SDS011;49407;51.388;0.048;2022-12-29T09:28:38;11.23;;;5.13;;
63282;SDS011;49407;51.388;0.048;2022-12-29T09:31:05;14.73;;;13.35;;
63282;SDS011;49407;51.388;0.048;2022-12-29T09:33:32;16.63;;;13.15;;
63282;SDS011;49407;51.388;0.048;2022-12-29T09:36:01;12.60;;;11.52;;
63282;SDS011;49407;51.388;0.048;2022-12-29T09:38:31;11.75;;;10.50;;
63282;SDS011;49407;51.388;0.048;2022-12-29T09:41:04;14.45;;;13.15;;
63282;SDS011;49407;51.388;0.048;2022-12-29T09:46:20;11.80;;;10.90;;
63282;SDS011;49407;51.388;0.048;2022-12-29T09:49:16;13.80;;;12.60;;
63282;SDS011;49407;51.388;0.048;2022-12-29T09:51:53;16.05;;;13.63;;
63282;SDS011;49407;51.388;0.048;2022-12-29T09:54:31;19.15;;;17.83;;
63282;SDS011;49407;51.388;0.048;2022-12-29T10:00:20;11.48;;;10.32;;
63282;SDS011;49407;51.388;0.048;2022-12-29T10:02:54;11.75;;;10.65;;
63282;SDS011;49407;51.388;0.048;2022-12-29T10:08:10;12.52;;;10.35;;
63282;SDS011;49407;51.388;0.048;2022-12-29T10:13:49;4.30;;;3.50;;
63282;SDS011;49407;51.388;0.048;2022-12-29T10:22:23;10.48;;;9.02;;
63282;SDS011;49407;51.388;0.048;2022-12-29T10:24:55;9.73;;;8.77;;
63282;SDS011;49407;51.388;0.048;2022-12-29T10:27:30;9.48;;;8.65;;
63282;SDS011;49407;51.388;0.048;2022-12-29T10:29:59;9.32;;;8.48;;
63282;SDS011;49407;51.388;0.048;2022-12-29T10:35:19;8.77;;;8.05;;
63282;SDS011;49407;51.388;0.048;2022-12-29T10:46:10;8.60;;;7.90;;
63282;SDS011;49407;51.388;0.048;2022-12-29T10:48:42;9.52;;;8.63;;
63282;SDS011;49407;51.388;0.048;2022-12-29T10:51:20;7.20;;;6.70;;
63282;SDS011;49407;51.388;0.048;2022-12-29T10:53:55;8.13;;;7.32;;
63282;SDS011;49407;51.388;0.048;2022-12-29T10:56:30;9.15;;;8.52;;
63282;SDS011;49407;51.388;0.048;2022-12-29T10:59:16;9.25;;;8.38;;
63282;SDS011;49407;51.388;0.048;2022-12-29T11:07:30;8.30;;;7.53;;
63282;SDS011;49407;51.388;0.048;2022-12-29T11:15:51;8.07;;;6.07;;
63282;SDS011;49407;51.388;0.048;2022-12-29T11:18:23;7.65;;;7.05;;
63282;SDS011;49407;51.388;0.048;2022-12-29T11:20:53;8.93;;;8.00;;
63282;SDS011;49407;51.388;0.048;2022-12-29T11:23:23;7.88;;;7.10;;
63282;SDS011;49407;51.388;0.048;2022-12-29T11:26:07;6.93;;;6.22;;
63282;SDS011;49407;51.388;0.048;2022-12-29T11:28:34;7.70;;;6.47;;
63282;SDS011;49407;51.388;0.048;2022-12-29T11:31:02;8.05;;;6.70;;
63282;SDS011;49407;51.388;0.048;2022-12-29T11:33:31;9.25;;;6.97;;
63282;SDS011;49407;51.388;0.048;2022-12-29T11:36:01;6.55;;;5.60;;
63282;SDS011;49407;51.388;0.048;2022-12-29T11:38:35;7.10;;;5.53;;
63282;SDS011;49407;51.388;0.048;2022-12-29T11:41:06;6.93;;;5.53;;
63282;SDS011;49407;51.388;0.048;2022-12-29T11:43:40;8.40;;;6.15;;
63282;SDS011;49407;51.388;0.048;2022-12-29T11:46:20;6.90;;;5.60;;
63282;SDS011;49407;51.388;0.048;2022-12-29T11:48:56;7.32;;;5.57;;
63282;SDS011;49407;51.388;0.048;2022-12-29T11:51:28;6.90;;;5.00;;
63282;SDS011;49407;51.388;0.048;2022-12-29T11:54:09;11.25;;;6.40;;
63282;SDS011;49407;51.388;0.048;2022-12-29T11:56:45;14.57;;;7.40;;
63282;SDS011;49407;51.388;0.048;2022-12-29T12:01:56;9.35;;;6.18;;
63282;SDS011;49407;51.388;0.048;2022-12-29T12:04:26;7.45;;;6.03;;
63282;SDS011;49407;51.388;0.048;2022-12-29T12:07:01;9.15;;;6.60;;
63282;SDS011;49407;51.388;0.048;2022-12-29T12:09:42;9.27;;;6.88;;
63282;SDS011;49407;51.388;0.048;2022-12-29T12:12:37;8.88;;;5.60;;
63282;SDS011;49407;51.388;0.048;2022-12-29T12:15:08;13.52;;;6.38;;
63282;SDS011;49407;51.388;0.048;2022-12-29T12:25:55;9.60;;;5.95;;
63282;SDS011;49407;51.388;0.048;2022-12-29T12:28:33;15.48;;;7.18;;
63282;SDS011;49407;51.388;0.048;2022-12-29T12:31:11;11.93;;;6.32;;
63282;SDS011;49407;51.388;0.048;2022-12-29T12:33:50;15.40;;;8.13;;
63282;SDS011;49407;51.388;0.048;2022-12-29T12:36:30;17.05;;;7.28;;
63282;SDS011;49407;51.388;0.048;2022-12-29T12:42:25;17.25;;;7.18;;
63282;SDS011;49407;51.388;0.048;2022-12-29T12:48:07;12.68;;;6.72;;
63282;SDS011;49407;51.388;0.048;2022-12-29T12:59:17;11.43;;;6.97;;
63282;SDS011;49407;51.388;0.048;2022-12-29T13:21:36;17.85;;;8.07;;
63282;SDS011;49407;51.388;0.048;2022-12-29T13:24:26;15.10;;;6.97;;
63282;SDS011;49407;51.388;0.048;2022-12-29T13:29:55;18.52;;;7.90;;
63282;SDS011;49407;51.388;0.048;2022-12-29T13:38:04;14.13;;;6.70;;
63282;SDS011;49407;51.388;0.048;2022-12-29T13:40:40;14.13;;;7.60;;
63282;SDS011;49407;51.388;0.048;2022-12-29T13:43:12;14.25;;;7.50;;
63282;SDS011;49407;51.388;0.048;2022-12-29T13:45:42;9.85;;;6.75;;
63282;SDS011;49407;51.388;0.048;2022-12-29T13:48:14;12.00;;;7.25;;
63282;SDS011;49407;51.388;0.048;2022-12-29T13:56:06;11.13;;;6.43;;
63282;SDS011;49407;51.388;0.048;2022-12-29T14:03:57;16.15;;;6.40;;
63282;SDS011;49407;51.388;0.048;2022-12-29T14:06:27;18.45;;;6.90;;
63282;SDS011;49407;51.388;0.048;2022-12-29T14:08:57;12.55;;;7.50;;
63282;SDS011;49407;51.388;0.048;2022-12-29T14:11:35;15.57;;;6.45;;
63282;SDS011;49407;51.388;0.048;2022-12-29T14:14:27;14.05;;;6.97;;
63282;SDS011;49407;51.388;0.048;2022-12-29T14:17:10;14.10;;;6.22;;
63282;SDS011;49407;51.388;0.048;2022-12-29T14:22:11;14.30;;;7.05;;
63282;SDS011;49407;51.388;0.048;2022-12-29T14:34:54;10.88;;;7.03;;
63282;SDS011;49407;51.388;0.048;2022-12-29T14:37:27;13.23;;;6.30;;
63282;SDS011;49407;51.388;0.048;2022-12-29T14:40:16;12.75;;;7.90;;
63282;SDS011;49407;51.388;0.048;2022-12-29T14:42:53;13.02;;;7.85;;
63282;SDS011;49407;51.388;0.048;2022-12-29T14:45:30;12.68;;;6.10;;
63282;SDS011;49407;51.388;0.048;2022-12-29T14:48:07;15.23;;;6.90;;
63282;SDS011;49407;51.388;0.048;2022-12-29T14:51:17;12.65;;;7.10;;
63282;SDS011;49407;51.388;0.048;2022-12-29T14:53:47;13.77;;;7.10;;
63282;SDS011;49407;51.388;0.048;2022-12-29T14:56:16;14.25;;;7.10;;
63282;SDS011;49407;51.388;0.048;2022-12-29T14:58:53;12.68;;;6.70;;
63282;SDS011;49407;51.388;0.048;2022-12-29T15:04:00;9.23;;;5.78;;
63282;SDS011;49407;51.388;0.048;2022-12-29T15:06:51;9.85;;;6.13;;
63282;SDS011;49407;51.388;0.048;2022-12-29T15:09:23;18.13;;;7.32;;
63282;SDS011;49407;51.388;0.048;2022-12-29T15:11:56;15.02;;;7.28;;
63282;SDS011;49407;51.388;0.048;2022-12-29T15:14:32;11.77;;;6.30;;
63282;SDS011;49407;51.388;0.048;2022-12-29T15:17:08;9.05;;;6.47;;
63282;SDS011;49407;51.388;0.048;2022-12-29T15:19:48;12.50;;;6.10;;
63282;SDS011;49407;51.388;0.048;2022-12-29T15:22:15;11.05;;;6.15;;
63282;SDS011;49407;51.388;0.048;2022-12-29T15:24:42;12.27;;;7.15;;
63282;SDS011;49407;51.388;0.048;2022-12-29T15:27:12;11.85;;;7.15;;
63282;SDS011;49407;51.388;0.048;2022-12-29T15:29:43;10.73;;;7.03;;
63282;SDS011;49407;51.388;0.048;2022-12-29T15:34:45;11.60;;;6.88;;
63282;SDS011;49407;51.388;0.048;2022-12-29T15:37:16;12.27;;;6.82;;
63282;SDS011;49407;51.388;0.048;2022-12-29T15:45:50;15.60;;;6.78;;
63282;SDS011;49407;51.388;0.048;2022-12-29T15:48:20;15.25;;;7.00;;
63282;SDS011;49407;51.388;0.048;2022-12-29T15:50:49;17.77;;;8.90;;
63282;SDS011;49407;51.388;0.048;2022-12-29T15:55:51;11.07;;;6.72;;
63282;SDS011;49407;51.388;0.048;2022-12-29T15:58:26;12.18;;;6.80;;
63282;SDS011;49407;51.388;0.048;2022-12-29T16:00:56;9.32;;;6.57;;
63282;SDS011;49407;51.388;0.048;2022-12-29T16:03:27;15.05;;;7.28;;
63282;SDS011;49407;51.388;0.048;2022-12-29T16:06:09;11.68;;;6.72;;
63282;SDS011;49407;51.388;0.048;2022-12-29T16:08:54;18.67;;;7.90;;
63282;SDS011;49407;51.388;0.048;2022-12-29T16:14:20;13.13;;;7.15;;
63282;SDS011;49407;51.388;0.048;2022-12-29T16:16:53;15.82;;;8.00;;
63282;SDS011;49407;51.388;0.048;2022-12-29T16:19:35;16.85;;;7.25;;
63282;SDS011;49407;51.388;0.048;2022-12-29T16:22:39;14.88;;;8.50;;
63282;SDS011;49407;51.388;0.048;2022-12-29T16:27:52;8.40;;;5.18;;
63282;SDS011;49407;51.388;0.048;2022-12-29T16:30:23;16.50;;;7.78;;
63282;SDS011;49407;51.388;0.048;2022-12-29T16:33:02;14.38;;;7.70;;
63282;SDS011;49407;51.388;0.048;2022-12-29T16:46:44;18.30;;;8.52;;
63282;SDS011;49407;51.388;0.048;2022-12-29T16:49:39;11.00;;;7.50;;
63282;SDS011;49407;51.388;0.048;2022-12-29T16:52:33;16.52;;;8.80;;
63282;SDS011;49407;51.388;0.048;2022-12-29T16:55:01;14.15;;;7.22;;
63282;SDS011;49407;51.388;0.048;2022-12-29T16:57:33;17.83;;;8.05;;
63282;SDS011;49407;51.388;0.048;2022-12-29T17:00:05;13.07;;;7.78;;
63282;SDS011;49407;51.388;0.048;2022-12-29T17:02:34;19.70;;;8.50;;
63282;SDS011;49407;51.388;0.048;2022-12-29T17:05:12;16.08;;;7.97;;
63282;SDS011;49407;51.388;0.048;2022-12-29T17:07:41;12.77;;;7.50;;
63282;SDS011;49407;51.388;0.048;2022-12-29T17:10:08;7.03;;;4.25;;
63282;SDS011;49407;51.388;0.048;2022-12-29T17:12:35;18.88;;;8.93;;
63282;SDS011;49407;51.388;0.048;2022-12-29T17:15:24;17.42;;;9.93;;
63282;SDS011;49407;51.388;0.048;2022-12-29T17:17:54;14.57;;;9.35;;
63282;SDS011;49407;51.388;0.048;2022-12-29T17:20:26;14.70;;;8.48;;
63282;SDS011;49407;51.388;0.048;2022-12-29T17:22:55;15.43;;;7.75;;
63282;SDS011;49407;51.388;0.048;2022-12-29T17:25:23;6.57;;;3.75;;
63282;SDS011;49407;51.388;0.048;2022-12-29T17:27:58;16.23;;;9.60;;
63282;SDS011;49407;51.388;0.048;2022-12-29T17:30:28;13.63;;;7.72;;
63282;SDS011;49407;51.388;0.048;2022-12-29T17:33:06;12.15;;;8.25;;
63282;SDS011;49407;51.388;0.048;2022-12-29T17:35:36;4.90;;;4.47;;
63282;SDS011;49407;51.388;0.048;2022-12-29T17:38:38;13.70;;;8.73;;
63282;SDS011;49407;51.388;0.048;2022-12-29T17:41:00;4.47;;;3.17;;
63282;SDS011;49407;51.388;0.048;2022-12-29T17:43:27;14.40;;;9.05;;
63282;SDS011;49407;51.388;0.048;2022-12-29T17:46:02;9.75;;;4.28;;
63282;SDS011;49407;51.388;0.048;2022-12-29T17:48:33;10.15;;;7.78;;
63282;SDS011;49407;51.388;0.048;2022-12-29T17:50:59;13.43;;;7.82;;
63282;SDS011;49407;51.388;0.048;2022-12-29T17:53:27;13.63;;;9.35;;
63282;SDS011;49407;51.388;0.048;2022-12-29T17:55:55;16.88;;;8.13;;
63282;SDS011;49407;51.388;0.048;2022-12-29T18:01:09;5.40;;;3.72;;
63282;SDS011;49407;51.388;0.048;2022-12-29T18:03:38;11.00;;;8.38;;
63282;SDS011;49407;51.388;0.048;2022-12-29T18:06:06;14.30;;;8.45;;
63282;SDS011;49407;51.388;0.048;2022-12-29T18:08:37;13.35;;;7.88;;
63282;SDS011;49407;51.388;0.048;2022-12-29T18:11:05;16.27;;;8.95;;
63282;SDS011;49407;51.388;0.048;2022-12-29T18:13:46;4.97;;;4.47;;
63282;SDS011;49407;51.388;0.048;2022-12-29T18:16:13;7.75;;;3.65;;
63282;SDS011;49407;51.388;0.048;2022-12-29T18:18:42;10.43;;;8.07;;
63282;SDS011;49407;51.388;0.048;2022-12-29T18:21:13;10.70;;;5.63;;